Time;durP1;ratioP1;P1;durP2;ratioP2;P2;SDS_P1;SDS_P2;PMS_P1;PMS_P2;Temp;Humidity;BMP_temperature;BMP_pressure;BME280_temperature;BME280_humidity;BME280_pressure;Samples;Min_cycle;Max_cycle;Signal;HPM_P1;HPM_P2
2022/06/02 00:02:48;;;;;;;10.68;6.55;;;11.60;99.90;;;;;;5050377;28;25099;-69
2022/06/02 00:05:28;;;;;;;10.02;6.72;;;11.50;99.90;;;;;;5049878;28;25093;-68
2022/06/02 00:08:39;;;;;;;9.00;7.13;;;11.60;99.90;;;;;;5041538;28;25069;-69
2022/06/02 00:11:29;;;;;;;10.27;7.55;;;11.50;99.90;;;;;;5003983;28;25063;-69
2022/06/02 00:14:17;;;;;;;8.55;7.63;;;11.60;99.90;;;;;;5041005;28;25080;-70
2022/06/02 00:16:49;;;;;;;10.40;7.85;;;11.50;99.90;;;;;;5038173;28;25082;-69
2022/06/02 00:19:39;;;;;;;9.07;8.00;;;11.50;99.90;;;;;;5041149;28;25096;-68
2022/06/02 00:23:02;;;;;;;9.95;7.82;;;11.40;99.90;;;;;;5003696;28;25056;-69
2022/06/02 00:25:35;;;;;;;9.13;7.47;;;11.30;99.90;;;;;;4961834;28;25053;-68
2022/06/02 00:28:07;;;;;;;12.27;8.82;;;11.20;99.90;;;;;;4959456;28;25175;-69
2022/06/02 00:30:40;;;;;;;9.93;8.77;;;11.20;99.90;;;;;;5015256;28;25050;-69
2022/06/02 00:33:15;;;;;;;9.85;8.57;;;11.10;99.90;;;;;;5020258;28;25054;-68
2022/06/02 00:35:49;;;;;;;11.98;9.05;;;11.10;99.90;;;;;;5038702;28;25077;-68
2022/06/02 00:38:31;;;;;;;12.30;9.40;;;11.10;99.90;;;;;;5039994;28;25049;-69
2022/06/02 00:41:23;;;;;;;19.73;10.10;;;11.00;99.90;;;;;;5042776;28;25062;-69
2022/06/02 00:44:10;;;;;;;12.43;9.27;;;11.00;99.90;;;;;;5043504;28;25088;-70
2022/06/02 00:46:36;;;;;;;11.50;9.10;;;10.90;99.90;;;;;;5042772;28;25072;-70
2022/06/02 00:49:19;;;;;;;10.15;8.63;;;11.00;99.90;;;;;;5035398;28;25129;-69
2022/06/02 00:51:56;;;;;;;11.20;9.63;;;10.90;99.90;;;;;;5047777;28;25065;-69
2022/06/02 00:57:49;;;;;;;11.88;9.45;;;10.80;99.90;;;;;;5037838;28;25105;-68
2022/06/02 01:00:21;;;;;;;11.13;9.00;;;10.80;99.90;;;;;;5039736;28;25079;-70
2022/06/02 01:02:52;;;;;;;12.77;9.13;;;10.80;99.90;;;;;;5037408;28;25083;-69
2022/06/02 01:05:56;;;;;;;13.20;9.32;;;10.80;99.90;;;;;;5023673;28;25057;-68
2022/06/02 01:08:45;;;;;;;9.40;8.32;;;10.80;99.90;;;;;;5035307;28;25077;-67
2022/06/02 01:11:43;;;;;;;12.77;9.70;;;10.80;99.90;;;;;;5039553;28;25066;-68
2022/06/02 01:14:21;;;;;;;10.07;9.07;;;10.80;99.90;;;;;;5000709;28;25086;-68
2022/06/02 01:17:16;;;;;;;10.88;9.07;;;10.80;99.90;;;;;;5018546;28;25051;-68
2022/06/02 01:20:15;;;;;;;10.35;8.50;;;10.70;99.90;;;;;;5035332;28;25160;-68
2022/06/02 01:23:11;;;;;;;12.38;9.18;;;10.60;99.90;;;;;;5040893;28;25058;-67
2022/06/02 01:25:49;;;;;;;13.50;10.10;;;10.60;99.90;;;;;;5034740;28;25061;-67
2022/06/02 01:28:14;;;;;;;13.13;10.27;;;10.50;99.90;;;;;;5020940;28;25070;-68
2022/06/02 01:30:59;;;;;;;13.10;10.95;;;10.50;99.90;;;;;;5038691;28;25122;-68
2022/06/02 01:33:36;;;;;;;13.23;10.82;;;10.50;99.90;;;;;;5036125;28;25065;-67
2022/06/02 01:36:44;;;;;;;14.90;11.73;;;10.40;99.90;;;;;;5030015;28;25075;-68
2022/06/02 01:39:46;;;;;;;14.55;12.30;;;10.40;99.90;;;;;;4974037;28;24986;-67
2022/06/02 01:42:55;;;;;;;16.17;12.35;;;10.40;99.90;;;;;;5036071;28;25063;-68
2022/06/02 01:46:04;;;;;;;17.20;12.60;;;10.40;99.90;;;;;;5043395;28;25077;-67
2022/06/02 01:49:01;;;;;;;18.33;12.90;;;10.30;99.90;;;;;;5045751;28;25065;-69
2022/06/02 01:51:35;;;;;;;15.65;12.65;;;10.30;99.90;;;;;;5037485;28;25119;-68
2022/06/02 01:54:34;;;;;;;16.92;12.82;;;10.30;99.90;;;;;;5036128;28;25104;-69
2022/06/02 01:57:21;;;;;;;16.90;13.82;;;10.30;99.90;;;;;;5021884;28;25100;-66
2022/06/02 02:00:13;;;;;;;14.23;12.45;;;10.20;99.90;;;;;;5040694;28;25085;-67
2022/06/02 02:03:04;;;;;;;15.20;13.20;;;10.30;99.90;;;;;;5039570;28;25155;-68
2022/06/02 02:06:07;;;;;;;16.05;12.88;;;10.30;99.90;;;;;;5020104;28;25079;-69
2022/06/02 02:08:51;;;;;;;14.70;13.20;;;10.20;99.90;;;;;;5038767;28;25104;-68
2022/06/02 02:11:25;;;;;;;19.48;13.73;;;10.20;99.90;;;;;;5035540;28;25173;-68
2022/06/02 02:14:21;;;;;;;16.83;12.27;;;10.10;99.90;;;;;;5039284;28;25080;-69
2022/06/02 02:17:08;;;;;;;15.77;13.00;;;10.20;99.90;;;;;;5047161;28;25059;-68
2022/06/02 02:20:10;;;;;;;17.15;12.40;;;10.40;99.90;;;;;;5037346;28;25060;-68
2022/06/02 02:23:13;;;;;;;15.38;12.43;;;10.40;99.90;;;;;;5041686;28;25099;-68
2022/06/02 02:26:01;;;;;;;16.80;10.95;;;10.40;99.90;;;;;;5035829;28;25066;-68
2022/06/02 02:28:51;;;;;;;16.45;12.77;;;10.20;99.90;;;;;;5019786;28;25160;-67
2022/06/02 02:31:26;;;;;;;18.02;12.65;;;10.10;99.90;;;;;;5033794;28;25061;-67
2022/06/02 02:33:55;;;;;;;15.65;13.70;;;10.00;99.90;;;;;;5019180;28;25139;-68
2022/06/02 02:36:54;;;;;;;14.45;12.57;;;10.10;99.90;;;;;;5038193;28;25062;-67
2022/06/02 02:39:33;;;;;;;14.48;11.90;;;10.10;99.90;;;;;;5023096;28;25071;-67
2022/06/02 02:42:27;;;;;;;14.98;12.57;;;10.10;99.90;;;;;;5039858;28;25071;-67
2022/06/02 02:45:15;;;;;;;18.02;13.02;;;10.10;99.90;;;;;;4985362;28;25103;-68
2022/06/02 02:48:10;;;;;;;20.17;13.13;;;10.00;99.90;;;;;;5041653;28;25087;-66
2022/06/02 02:50:42;;;;;;;15.25;13.68;;;10.00;99.90;;;;;;5038677;28;25052;-68
2022/06/02 02:53:32;;;;;;;14.93;12.13;;;10.10;99.90;;;;;;5037625;28;25057;-67
2022/06/02 02:56:06;;;;;;;16.63;12.27;;;10.10;99.90;;;;;;5034730;28;25128;-68
2022/06/02 02:58:38;;;;;;;16.65;13.07;;;10.00;99.90;;;;;;5037377;28;25134;-68
2022/06/02 03:01:07;;;;;;;14.27;12.77;;;10.10;99.90;;;;;;5037288;28;25081;-67
2022/06/02 03:03:58;;;;;;;18.52;13.18;;;10.10;99.90;;;;;;5035592;28;25149;-67
2022/06/02 03:06:27;;;;;;;16.38;13.60;;;10.10;99.90;;;;;;5036824;28;25062;-67
2022/06/02 03:09:13;;;;;;;18.17;13.00;;;10.10;99.90;;;;;;5033121;28;25059;-68
2022/06/02 03:11:48;;;;;;;18.77;12.63;;;10.10;99.90;;;;;;5037421;28;25125;-69
2022/06/02 03:14:50;;;;;;;16.98;12.55;;;10.00;99.90;;;;;;5034854;28;25057;-68
2022/06/02 03:17:43;;;;;;;16.97;14.43;;;10.00;99.90;;;;;;5034519;28;25064;-68
2022/06/02 03:20:20;;;;;;;16.55;14.82;;;9.90;99.90;;;;;;5033958;28;25066;-68
2022/06/02 03:23:22;;;;;;;20.48;16.10;;;9.90;99.90;;;;;;5034321;28;25096;-66
2022/06/02 03:25:53;;;;;;;21.20;17.80;;;9.70;99.90;;;;;;5033668;28;25065;-66
2022/06/02 03:28:42;;;;;;;20.85;15.45;;;9.70;99.90;;;;;;5035886;28;25068;-68
2022/06/02 03:31:25;;;;;;;19.02;14.63;;;9.70;99.90;;;;;;5036227;28;25078;-69
2022/06/02 03:33:59;;;;;;;21.73;14.90;;;9.70;99.90;;;;;;5034474;28;25079;-68
2022/06/02 03:36:31;;;;;;;17.00;14.52;;;9.70;99.90;;;;;;5034972;28;25065;-68
2022/06/02 03:39:07;;;;;;;18.10;14.77;;;9.80;99.90;;;;;;5033513;28;25059;-68
2022/06/02 03:42:10;;;;;;;20.73;14.45;;;9.80;99.90;;;;;;5032658;28;25061;-69
2022/06/02 03:44:42;;;;;;;17.08;14.88;;;9.80;99.90;;;;;;5019976;28;25061;-68
2022/06/02 03:47:20;;;;;;;16.98;13.98;;;9.70;99.90;;;;;;5006404;28;25119;-68
2022/06/02 03:50:06;;;;;;;16.05;14.07;;;9.70;99.90;;;;;;5018855;28;25075;-67
2022/06/02 03:53:19;;;;;;;17.77;14.23;;;9.70;99.90;;;;;;5038788;28;25050;-69
2022/06/02 03:56:15;;;;;;;17.95;15.43;;;9.70;99.90;;;;;;4981742;28;25081;-70
2022/06/02 03:59:02;;;;;;;22.95;16.27;;;9.70;99.90;;;;;;5017457;28;25143;-69
2022/06/02 04:01:37;;;;;;;18.13;15.32;;;9.70;99.90;;;;;;5035639;28;25072;-70
2022/06/02 04:04:03;;;;;;;18.70;15.85;;;9.80;99.90;;;;;;5020122;28;25077;-69
2022/06/02 04:06:43;;;;;;;18.92;16.27;;;9.80;99.90;;;;;;5033418;28;25057;-70
2022/06/02 04:09:18;;;;;;;21.10;16.90;;;9.80;99.90;;;;;;5037152;28;25146;-69
2022/06/02 04:15:14;;;;;;;17.33;14.55;;;9.90;99.90;;;;;;5034392;28;25107;-70
2022/06/02 04:18:07;;;;;;;16.48;13.93;;;10.00;99.90;;;;;;5015517;28;25143;-70
2022/06/02 04:21:10;;;;;;;16.30;13.65;;;10.20;99.90;;;;;;5037681;28;25062;-70
2022/06/02 04:23:44;;;;;;;;;;;10.20;99.90;;;;;;5039263;28;25064;-70
2022/06/02 04:26:32;;;;;;;19.67;15.32;;;10.10;99.90;;;;;;5022380;28;25077;-69
2022/06/02 04:29:03;;;;;;;18.92;16.92;;;9.90;99.90;;;;;;5040269;28;25066;-69
2022/06/02 04:31:52;;;;;;;18.58;16.58;;;10.00;99.90;;;;;;5038680;28;25175;-69
2022/06/02 04:34:48;;;;;;;19.85;16.85;;;10.00;99.90;;;;;;5017065;28;25051;-69
2022/06/02 04:38:07;;;;;;;17.85;15.85;;;10.10;99.90;;;;;;5031892;28;25064;-70
2022/06/02 04:40:56;;;;;;;20.75;15.85;;;10.20;99.90;;;;;;4954808;28;25149;-67
2022/06/02 04:43:32;;;;;;;17.48;15.55;;;10.30;99.90;;;;;;5040988;28;24964;-68
2022/06/02 04:46:29;;;;;;;19.88;15.48;;;10.30;99.90;;;;;;5040948;28;25051;-69
2022/06/02 04:49:16;;;;;;;20.15;15.45;;;10.40;99.90;;;;;;4991623;28;25062;-67
2022/06/02 04:51:57;;;;;;;21.80;16.33;;;10.40;99.90;;;;;;5042825;28;25131;-68
2022/06/02 04:54:28;;;;;;;18.38;16.45;;;10.50;99.90;;;;;;5046349;28;25123;-69
2022/06/02 04:57:38;;;;;;;21.75;15.82;;;10.60;99.90;;;;;;5053605;28;25075;-68
2022/06/02 05:00:10;;;;;;;20.33;15.25;;;10.80;99.90;;;;;;5046991;28;25150;-67
2022/06/02 05:02:59;;;;;;;20.60;15.85;;;11.00;99.90;;;;;;5046725;28;25061;-67
2022/06/02 05:05:38;;;;;;;19.48;15.15;;;11.10;99.90;;;;;;5046890;28;25056;-68
2022/06/02 05:08:33;;;;;;;17.92;15.52;;;11.30;99.90;;;;;;5043779;28;25136;-70
2022/06/02 05:11:10;;;;;;;17.42;14.30;;;11.40;99.90;;;;;;5046998;28;25057;-68
2022/06/02 05:13:39;;;;;;;20.42;15.38;;;11.50;99.90;;;;;;5039394;28;25073;-67
2022/06/02 05:16:09;;;;;;;17.55;14.93;;;11.50;99.90;;;;;;5036441;28;25087;-68
2022/06/02 05:18:50;;;;;;;16.73;14.88;;;11.70;99.90;;;;;;5039300;28;25148;-68
2022/06/02 05:21:36;;;;;;;19.23;14.35;;;11.80;99.90;;;;;;5038270;28;25089;-68
2022/06/02 05:24:07;;;;;;;16.83;14.32;;;11.90;99.90;;;;;;5038258;28;25121;-69
2022/06/02 05:26:44;;;;;;;20.00;14.95;;;12.00;99.90;;;;;;5037077;28;25106;-69
2022/06/02 05:29:35;;;;;;;16.70;13.25;;;12.00;99.90;;;;;;5020185;28;25096;-68
2022/06/02 05:32:30;;;;;;;16.50;13.23;;;12.20;99.90;;;;;;5020953;28;25131;-68
2022/06/02 05:35:31;;;;;;;16.25;14.35;;;12.40;99.90;;;;;;5038448;28;25142;-68
2022/06/02 05:38:21;;;;;;;18.60;12.93;;;12.60;99.90;;;;;;5039336;28;25163;-68
2022/06/02 05:41:01;;;;;;;16.83;12.07;;;12.70;99.90;;;;;;5038305;28;25076;-68
2022/06/02 05:43:51;;;;;;;18.05;11.48;;;13.00;99.90;;;;;;5036063;28;25059;-67
2022/06/02 05:46:50;;;;;;;12.88;6.05;;;13.10;99.90;;;;;;5039097;28;25061;-70
2022/06/02 05:49:37;;;;;;;6.25;5.60;;;12.90;99.90;;;;;;5037530;28;25053;-67
2022/06/02 05:52:45;;;;;;;7.90;6.20;;;12.80;99.90;;;;;;5018778;28;25063;-69
2022/06/02 05:55:26;;;;;;;10.38;5.55;;;13.20;99.90;;;;;;5037151;28;25053;-69
2022/06/02 05:58:29;;;;;;;9.80;5.40;;;13.20;99.90;;;;;;5037203;28;25042;-67
2022/06/02 06:01:37;;;;;;;6.65;5.30;;;13.30;99.90;;;;;;4999991;28;25041;-70
2022/06/02 06:04:36;;;;;;;5.97;4.03;;;13.30;99.90;;;;;;5019019;28;25146;-69
2022/06/02 06:07:13;;;;;;;6.55;4.50;;;13.10;99.90;;;;;;5037511;28;25135;-69
2022/06/02 06:09:39;;;;;;;6.18;3.85;;;13.20;99.90;;;;;;5037242;28;25092;-69
2022/06/02 06:12:56;;;;;;;5.28;4.40;;;13.60;99.90;;;;;;5021210;28;25110;-69
2022/06/02 06:15:49;;;;;;;10.50;5.18;;;13.80;99.90;;;;;;4912146;29;25148;-68
2022/06/02 06:18:32;;;;;;;7.72;5.43;;;13.50;99.90;;;;;;4972918;28;25081;-68
2022/06/02 06:21:58;;;;;;;12.13;6.07;;;13.60;99.90;;;;;;5043645;28;25077;-68
2022/06/02 06:24:23;;;;;;;8.63;6.82;;;13.70;99.90;;;;;;4966920;28;25088;-68
2022/06/02 06:27:00;;;;;;;6.93;5.93;;;13.90;99.90;;;;;;4967097;28;25145;-69
2022/06/02 06:29:34;;;;;;;7.18;6.35;;;14.00;99.90;;;;;;5010614;28;25054;-69
2022/06/02 06:32:21;;;;;;;7.28;5.57;;;14.10;99.90;;;;;;5042563;28;25091;-69
2022/06/02 06:34:56;;;;;;;7.57;6.75;;;14.30;99.90;;;;;;5021634;28;25093;-70
2022/06/02 06:37:49;;;;;;;9.20;6.60;;;14.40;99.90;;;;;;5035744;28;25049;-68
2022/06/02 06:40:43;;;;;;;8.27;6.75;;;14.40;99.90;;;;;;5036724;28;25147;-68
2022/06/02 06:43:27;;;;;;;8.88;6.97;;;14.40;99.90;;;;;;5016064;28;25046;-68
2022/06/02 06:45:53;;;;;;;8.43;6.80;;;14.30;99.90;;;;;;5041077;28;25053;-68
2022/06/02 06:48:51;;;;;;;9.25;8.25;;;14.20;99.90;;;;;;5048499;28;25066;-68
2022/06/02 06:51:43;;;;;;;9.07;7.97;;;14.30;99.90;;;;;;5049710;28;25096;-69
2022/06/02 06:54:24;;;;;;;7.38;5.97;;;14.10;99.90;;;;;;5047996;28;25070;-68
2022/06/02 06:56:54;;;;;;;8.43;6.97;;;14.30;99.90;;;;;;5038131;28;25063;-68
2022/06/02 06:59:46;;;;;;;6.63;6.03;;;14.10;99.90;;;;;;5046616;28;25072;-68
2022/06/02 07:02:35;;;;;;;7.63;5.75;;;14.10;99.90;;;;;;5037993;28;25093;-67
2022/06/02 07:05:13;;;;;;;10.93;8.00;;;14.10;99.90;;;;;;5033866;28;25142;-67
2022/06/02 07:07:57;;;;;;;7.55;6.75;;;14.60;99.90;;;;;;5016883;28;25099;-67
2022/06/02 07:10:41;;;;;;;8.93;7.28;;;14.90;99.90;;;;;;5036768;28;25055;-67
2022/06/02 07:13:07;;;;;;;9.35;6.57;;;14.60;99.90;;;;;;5036454;28;25061;-68
2022/06/02 07:15:46;;;;;;;11.70;6.40;;;14.60;99.90;;;;;;5038017;28;25072;-71
2022/06/02 07:18:42;;;;;;;6.75;5.70;;;14.40;99.90;;;;;;5043974;28;25075;-68
2022/06/02 07:21:46;;;;;;;6.97;6.03;;;14.50;99.90;;;;;;5037785;28;25058;-68
2022/06/02 07:24:34;;;;;;;6.68;5.03;;;14.80;99.90;;;;;;5040548;28;25101;-69
2022/06/02 07:27:26;;;;;;;6.53;5.80;;;15.10;99.90;;;;;;5018350;28;25080;-69
2022/06/02 07:30:27;;;;;;;7.65;6.50;;;15.20;99.90;;;;;;5034202;28;25113;-69
2022/06/02 07:33:23;;;;;;;8.20;6.68;;;15.30;99.90;;;;;;5035542;28;25089;-68
2022/06/02 07:36:19;;;;;;;7.45;6.75;;;14.70;99.90;;;;;;5036087;28;25153;-68
2022/06/02 07:39:18;;;;;;;8.00;7.22;;;14.30;99.90;;;;;;5037005;28;25092;-69
2022/06/02 07:42:03;;;;;;;6.65;5.95;;;14.80;99.90;;;;;;5018878;28;25053;-69
2022/06/02 07:44:50;;;;;;;8.52;6.22;;;15.40;99.90;;;;;;5035672;28;25136;-69
2022/06/02 07:47:34;;;;;;;6.25;5.63;;;15.90;99.90;;;;;;5034737;28;25075;-69
2022/06/02 07:50:14;;;;;;;8.23;5.60;;;16.10;99.90;;;;;;5034343;28;25050;-69
2022/06/02 07:53:02;;;;;;;10.48;6.28;;;16.20;99.90;;;;;;5034701;28;25107;-70
2022/06/02 07:55:51;;;;;;;11.07;6.97;;;16.10;99.90;;;;;;5034259;28;25065;-69
2022/06/02 07:58:26;;;;;;;7.13;4.22;;;15.60;99.90;;;;;;5018066;28;25071;-69
2022/06/02 08:01:11;;;;;;;7.03;4.40;;;15.40;99.90;;;;;;5035575;28;25060;-69
2022/06/02 08:04:00;;;;;;;6.70;5.32;;;15.60;99.90;;;;;;5034946;28;25077;-70
2022/06/02 08:06:42;;;;;;;8.60;6.38;;;16.00;99.90;;;;;;5032999;28;25071;-69
2022/06/02 08:09:47;;;;;;;7.97;5.63;;;16.30;99.90;;;;;;5033679;28;25078;-69
2022/06/02 08:12:26;;;;;;;6.65;5.60;;;16.50;99.90;;;;;;5018111;28;25076;-70
2022/06/02 08:15:09;;;;;;;8.63;6.15;;;17.00;99.90;;;;;;5035968;28;25104;-69
2022/06/02 08:17:48;;;;;;;6.35;5.38;;;17.00;96.80;;;;;;5038611;28;25152;-68
2022/06/02 08:20:42;;;;;;;5.72;5.22;;;16.90;97.30;;;;;;5039007;28;25078;-68
2022/06/02 08:23:23;;;;;;;7.18;5.43;;;17.00;96.40;;;;;;5041681;28;25076;-68
2022/06/02 08:25:55;;;;;;;7.15;5.75;;;17.10;97.90;;;;;;5040118;28;25064;-68
2022/06/02 08:28:50;;;;;;;8.10;6.35;;;16.70;95.50;;;;;;5036955;28;25066;-68
2022/06/02 08:31:50;;;;;;;8.68;7.13;;;16.30;98.60;;;;;;5039972;28;25087;-67
2022/06/02 08:34:27;;;;;;;8.52;6.88;;;16.10;99.90;;;;;;5038592;28;25061;-67
2022/06/02 08:37:17;;;;;;;10.85;6.63;;;16.50;99.90;;;;;;5038711;28;25059;-67
2022/06/02 08:39:58;;;;;;;6.97;6.38;;;16.70;98.90;;;;;;5040847;28;25063;-69
2022/06/02 08:42:53;;;;;;;7.75;6.25;;;16.60;99.90;;;;;;5040085;28;25058;-67
2022/06/02 08:45:44;;;;;;;9.73;6.30;;;16.90;97.40;;;;;;5038763;28;25077;-68
2022/06/02 08:48:39;;;;;;;7.35;6.55;;;17.50;95.00;;;;;;5039379;28;25067;-68
2022/06/02 08:51:55;;;;;;;7.80;5.95;;;17.30;94.10;;;;;;5017477;28;25142;-68
2022/06/02 08:54:44;;;;;;;6.65;5.13;;;17.10;93.00;;;;;;5039484;28;25521;-68
2022/06/02 08:58:03;;;;;;;6.78;3.80;;;17.00;93.60;;;;;;5039264;28;25125;-69
2022/06/02 09:00:50;;;;;;;5.18;4.43;;;17.70;91.20;;;;;;4910145;29;25160;-68
2022/06/02 09:04:01;;;;;;;7.65;4.80;;;17.80;90.10;;;;;;5030324;28;25083;-67
2022/06/02 09:06:59;;;;;;;6.75;5.00;;;17.60;82.30;;;;;;5021886;28;25058;-70
2022/06/02 09:09:50;;;;;;;8.55;5.45;;;16.90;89.90;;;;;;5039599;28;25096;-68
2022/06/02 09:12:52;;;;;;;7.80;5.05;;;17.20;93.30;;;;;;5039578;28;25086;-68
2022/06/02 09:15:44;;;;;;;6.18;4.32;;;17.30;89.30;;;;;;5039016;28;25074;-68
2022/06/02 09:18:36;;;;;;;6.55;5.18;;;17.30;89.60;;;;;;5037146;28;25103;-70
2022/06/02 09:21:19;;;;;;;5.75;4.70;;;17.20;88.20;;;;;;5036190;28;25080;-67
2022/06/02 09:23:49;;;;;;;;;;;17.60;86.40;;;;;;5003585;28;25147;-70
2022/06/02 09:26:29;;;;;;;7.40;5.18;;;18.00;84.40;;;;;;5018708;28;24061;-70
2022/06/02 09:29:11;;;;;;;5.05;4.60;;;18.00;80.50;;;;;;5037480;28;25048;-68
2022/06/02 09:32:01;;;;;;;6.25;4.30;;;18.10;82.70;;;;;;5038449;28;25067;-69
2022/06/02 09:34:49;;;;;;;4.40;3.88;;;18.30;81.30;;;;;;5037827;28;25073;-69
2022/06/02 09:37:21;;;;;;;6.18;5.38;;;18.00;80.30;;;;;;5038827;28;25071;-69
2022/06/02 09:39:55;;;;;;;7.90;5.70;;;17.80;77.80;;;;;;5037928;28;25107;-68
2022/06/02 09:42:40;;;;;;;6.20;5.35;;;17.30;84.90;;;;;;5038487;28;25081;-68
2022/06/02 09:45:14;;;;;;;7.05;6.22;;;17.50;84.30;;;;;;5037491;28;25127;-68
2022/06/02 09:47:54;;;;;;;9.18;6.35;;;17.30;83.70;;;;;;5037343;28;25158;-67
2022/06/02 09:50:46;;;;;;;8.70;5.32;;;17.20;87.60;;;;;;5036938;28;25070;-68
2022/06/02 09:53:22;;;;;;;7.70;6.18;;;18.00;82.80;;;;;;5036261;28;25059;-66
2022/06/02 09:55:48;;;;;;;7.60;6.40;;;18.20;80.20;;;;;;5036573;28;25111;-67
2022/06/02 09:58:47;;;;;;;7.60;6.47;;;18.50;78.50;;;;;;5037183;28;25161;-66
2022/06/02 10:01:36;;;;;;;8.35;6.07;;;18.20;77.10;;;;;;5034853;28;25086;-69
2022/06/02 10:04:36;;;;;;;8.50;6.07;;;18.00;78.60;;;;;;5037871;28;25051;-68
2022/06/02 10:07:07;;;;;;;5.78;5.18;;;17.70;80.50;;;;;;5037280;28;25129;-67
2022/06/02 10:10:01;;;;;;;5.60;5.00;;;18.10;79.20;;;;;;5036372;28;25064;-70
2022/06/02 10:12:54;;;;;;;6.22;4.60;;;18.70;77.10;;;;;;5039088;28;25055;-69
2022/06/02 10:15:25;;;;;;;6.95;6.10;;;18.90;71.60;;;;;;5035629;28;25060;-69
2022/06/02 10:18:09;;;;;;;9.00;5.80;;;18.70;71.20;;;;;;5036704;28;25062;-68
2022/06/02 10:20:44;;;;;;;11.27;5.68;;;18.50;73.40;;;;;;5036884;28;25106;-67
2022/06/02 10:23:54;;;;;;;5.72;4.75;;;18.60;75.60;;;;;;5039089;28;25078;-67
2022/06/02 10:27:01;;;;;;;5.78;4.65;;;19.10;73.90;;;;;;5036792;28;25081;-67
2022/06/02 10:29:56;;;;;;;6.00;5.47;;;18.80;71.50;;;;;;5035955;28;25063;-68
2022/06/02 10:32:47;;;;;;;7.20;5.60;;;18.10;74.20;;;;;;5036878;28;25095;-67
2022/06/02 10:35:37;;;;;;;8.05;5.25;;;18.00;73.70;;;;;;5036039;28;25060;-69
2022/06/02 10:38:17;;;;;;;7.63;6.90;;;18.10;71.10;;;;;;5036477;28;25061;-68
2022/06/02 10:41:10;;;;;;;6.95;5.03;;;18.20;72.00;;;;;;5016846;28;25074;-67
2022/06/02 10:44:15;;;;;;;6.60;5.82;;;18.70;69.90;;;;;;5019089;28;25153;-72
2022/06/02 10:47:13;;;;;;;6.50;5.70;;;19.70;68.70;;;;;;4999465;28;25155;-69
2022/06/02 10:49:54;;;;;;;6.22;5.63;;;20.20;57.50;;;;;;5039988;28;25103;-70
2022/06/02 10:52:48;;;;;;;5.07;4.53;;;20.20;55.40;;;;;;5041393;28;25081;-67
2022/06/02 10:55:45;;;;;;;8.63;5.60;;;20.40;51.60;;;;;;5021311;28;25082;-68
2022/06/02 10:58:42;;;;;;;6.68;5.20;;;19.30;48.10;;;;;;5019401;28;25102;-68
2022/06/02 11:01:30;;;;;;;6.57;4.88;;;19.20;51.00;;;;;;5038392;28;25076;-70
2022/06/02 11:04:35;;;;;;;8.25;5.05;;;20.00;53.90;;;;;;5038755;28;25082;-68
2022/06/02 11:07:19;;;;;;;7.28;4.93;;;20.80;51.00;;;;;;5037965;28;25064;-70
2022/06/02 11:10:19;;;;;;;5.25;4.05;;;20.90;52.40;;;;;;5037444;28;25113;-69
2022/06/02 11:13:36;;;;;;;8.57;4.70;;;20.20;36.90;;;;;;5035550;28;25069;-70
2022/06/02 11:16:25;;;;;;;7.35;4.70;;;19.90;41.90;;;;;;5017054;28;25094;-69
2022/06/02 11:19:22;;;;;;;7.13;6.07;;;19.70;50.60;;;;;;4979937;28;25158;-70
2022/06/02 11:21:53;;;;;;;7.30;4.85;;;19.50;49.20;;;;;;5013459;28;25077;-69
2022/06/02 11:24:57;;;;;;;6.13;4.10;;;18.90;51.30;;;;;;5017921;28;25068;-72
2022/06/02 11:27:45;;;;;;;4.20;3.80;;;19.60;51.10;;;;;;5020285;28;25068;-69
2022/06/02 11:30:31;;;;;;;4.57;3.80;;;20.50;47.70;;;;;;5038515;28;25088;-69
2022/06/02 11:33:18;;;;;;;4.38;3.88;;;20.90;36.70;;;;;;5040358;28;25081;-70
2022/06/02 11:35:56;;;;;;;5.38;4.40;;;21.10;39.10;;;;;;5041070;28;25066;-69
2022/06/02 11:38:42;;;;;;;4.80;4.40;;;21.50;46.40;;;;;;5048078;28;25108;-69
2022/06/02 11:41:11;;;;;;;7.28;5.18;;;21.70;43.40;;;;;;5017573;28;25052;-69
2022/06/02 11:44:03;;;;;;;6.97;5.63;;;21.30;39.50;;;;;;5034642;28;25075;-69
2022/06/02 11:46:32;;;;;;;7.90;5.70;;;20.60;36.40;;;;;;5033367;28;25121;-69
2022/06/02 11:49:22;;;;;;;8.50;5.25;;;20.00;46.10;;;;;;5035490;28;25073;-71
2022/06/02 11:52:03;;;;;;;4.97;4.47;;;20.00;47.90;;;;;;5036244;28;25076;-70
2022/06/02 11:54:46;;;;;;;4.72;4.20;;;20.90;48.60;;;;;;5039087;28;25144;-70
2022/06/02 11:57:43;;;;;;;6.18;4.05;;;21.30;48.40;;;;;;5039140;28;25112;-70
2022/06/02 12:00:17;;;;;;;5.05;4.25;;;20.70;49.70;;;;;;5020393;28;25076;-69
2022/06/02 12:03:11;;;;;;;7.13;3.95;;;20.80;50.10;;;;;;5043125;28;25123;-71
2022/06/02 12:06:01;;;;;;;6.40;4.70;;;21.50;47.10;;;;;;5038845;28;25160;-69
2022/06/02 12:08:30;;;;;;;8.02;5.05;;;21.30;37.80;;;;;;5038577;28;25087;-71
2022/06/02 12:11:32;;;;;;;6.30;5.22;;;20.60;43.20;;;;;;5039153;28;25071;-68
2022/06/02 12:14:07;;;;;;;;;;;20.40;46.60;;;;;;5039105;28;25113;-69
2022/06/02 12:16:38;;;;;;;6.63;4.90;;;20.40;46.90;;;;;;5038726;28;25069;-69
2022/06/02 12:19:25;;;;;;;5.67;4.50;;;20.10;46.60;;;;;;5038219;28;25064;-70
2022/06/02 12:22:10;;;;;;;5.43;4.90;;;20.50;45.70;;;;;;5038002;28;25054;-70
2022/06/02 12:24:53;;;;;;;8.10;5.30;;;20.30;45.10;;;;;;5037360;28;25097;-70
2022/06/02 12:27:44;;;;;;;5.07;4.30;;;20.10;47.60;;;;;;5038160;28;25074;-70
2022/06/02 12:30:35;;;;;;;9.07;4.93;;;20.80;47.50;;;;;;5038428;28;25064;-69
2022/06/02 12:33:30;;;;;;;5.53;4.63;;;20.00;47.40;;;;;;5038912;28;25059;-69
2022/06/02 12:36:33;;;;;;;4.63;4.07;;;20.10;51.50;;;;;;5037882;28;25048;-70
2022/06/02 12:39:50;;;;;;;6.47;4.10;;;20.30;49.90;;;;;;5038673;28;25075;-69
2022/06/02 12:42:30;;;;;;;5.00;4.57;;;21.00;40.90;;;;;;4951881;28;25163;-72
2022/06/02 12:45:25;;;;;;;6.50;5.07;;;21.40;38.20;;;;;;5039428;28;25085;-70
2022/06/02 12:48:21;;;;;;;6.35;5.45;;;21.30;44.60;;;;;;5038589;28;25065;-69
2022/06/02 12:51:11;;;;;;;7.30;5.75;;;20.80;37.40;;;;;;5043773;28;25158;-70
2022/06/02 12:54:23;;;;;;;6.65;5.32;;;20.00;46.40;;;;;;5037053;28;25091;-69
2022/06/02 12:57:24;;;;;;;6.35;5.70;;;19.90;47.00;;;;;;5021366;28;25071;-70
2022/06/02 13:00:13;;;;;;;6.80;5.05;;;19.70;42.40;;;;;;5021889;28;25062;-69
2022/06/02 13:03:09;;;;;;;6.95;5.43;;;19.70;47.40;;;;;;5039187;28;25065;-69
2022/06/02 13:05:38;;;;;;;5.13;4.43;;;19.70;45.60;;;;;;5035258;28;25083;-69
2022/06/02 13:08:18;;;;;;;5.10;4.57;;;20.30;45.70;;;;;;5036666;28;25061;-68
2022/06/02 13:10:52;;;;;;;4.78;4.35;;;20.30;41.90;;;;;;5019929;28;25118;-69
2022/06/02 13:13:55;;;;;;;6.38;4.80;;;20.00;44.80;;;;;;5037251;28;25113;-69
2022/06/02 13:16:26;;;;;;;;;;;19.50;51.20;;;;;;5036401;28;25072;-69
2022/06/02 13:19:22;;;;;;;8.85;3.78;;;19.60;49.30;;;;;;5039222;28;24084;-70
2022/06/02 13:22:25;;;;;;;5.82;5.00;;;19.80;46.80;;;;;;5019191;28;25067;-69
2022/06/02 13:25:50;;;;;;;6.32;4.55;;;20.10;43.70;;;;;;5037160;28;25078;-69
2022/06/02 13:29:04;;;;;;;6.35;5.75;;;20.00;45.80;;;;;;4908852;29;25081;-69
2022/06/02 13:31:48;;;;;;;6.68;5.55;;;19.60;43.60;;;;;;4955667;28;25117;-69
2022/06/02 13:34:25;;;;;;;6.38;5.50;;;19.70;46.70;;;;;;5037566;28;25086;-70
2022/06/02 13:36:57;;;;;;;7.15;5.18;;;19.60;46.00;;;;;;5038649;28;25067;-71
2022/06/02 13:40:07;;;;;;;5.63;4.85;;;19.80;43.90;;;;;;5020011;28;25090;-69
2022/06/02 13:43:03;;;;;;;5.10;4.13;;;19.60;45.60;;;;;;5038695;28;25127;-71
2022/06/02 13:46:01;;;;;;;5.00;3.88;;;19.90;42.20;;;;;;5037125;28;25128;-70
2022/06/02 13:48:45;;;;;;;6.22;4.20;;;20.10;45.90;;;;;;5013390;28;25163;-71
2022/06/02 13:51:16;;;;;;;5.47;4.15;;;20.20;45.90;;;;;;5036734;28;25079;-71
2022/06/02 13:59:57;;;;;;;22.77;5.53;;;19.90;31.60;;;;;;5011830;28;25055;-70
2022/06/02 14:02:44;;;;;;;7.88;4.45;;;19.70;38.10;;;;;;5037560;28;25080;-68
2022/06/02 14:05:19;;;;;;;7.03;5.40;;;19.70;42.70;;;;;;5038667;28;25081;-70
2022/06/02 14:07:53;;;;;;;8.05;5.10;;;19.70;46.30;;;;;;5038162;28;25153;-71
2022/06/02 14:10:31;;;;;;;5.80;5.05;;;19.40;48.00;;;;;;5039977;28;25083;-70
2022/06/02 14:13:24;;;;;;;5.72;5.13;;;19.50;44.30;;;;;;5038107;28;25069;-69
2022/06/02 14:16:16;;;;;;;5.57;3.20;;;19.50;45.70;;;;;;5038741;28;25138;-69
2022/06/02 14:18:47;;;;;;;4.00;2.97;;;19.40;47.60;;;;;;5039159;28;25066;-70
2022/06/02 14:21:23;;;;;;;6.22;3.13;;;19.70;48.70;;;;;;5040366;28;25135;-70
2022/06/02 14:24:10;;;;;;;4.40;3.38;;;19.80;40.50;;;;;;5020692;28;25075;-70
2022/06/02 14:26:41;;;;;;;5.47;3.40;;;19.90;38.50;;;;;;5037537;28;25060;-70
2022/06/02 14:29:17;;;;;;;4.22;3.88;;;19.90;42.10;;;;;;5036271;28;25050;-69
2022/06/02 14:32:00;;;;;;;6.88;3.30;;;19.60;40.40;;;;;;5036210;28;25084;-70
2022/06/02 14:35:01;;;;;;;6.20;3.80;;;19.40;47.40;;;;;;5037703;28;25093;-69
2022/06/02 14:37:45;;;;;;;3.40;2.95;;;19.60;39.20;;;;;;5040925;28;25140;-68